Time;durP1;ratioP1;P1;durP2;ratioP2;P2;SDS_P1;SDS_P2;PMS_P1;PMS_P2;Temp;Humidity;BMP_temperature;BMP_pressure;BME280_temperature;BME280_humidity;BME280_pressure;Samples;Min_cycle;Max_cycle;Signal;HPM_P1;HPM_P2
2022/08/28 00:01:47;;;;;;;13.90;8.32;;;18.10;99.90;;;;;;5066228;28;20024;-85
2022/08/28 00:04:13;;;;;;;16.83;7.25;;;18.10;99.90;;;;;;5064328;28;20044;-85
2022/08/28 00:06:38;;;;;;;12.52;7.53;;;18.00;99.90;;;;;;5065532;28;20028;-86
2022/08/28 00:09:04;;;;;;;14.35;8.15;;;18.10;99.90;;;;;;5065232;28;20082;-85
2022/08/28 00:11:30;;;;;;;12.55;6.85;;;18.10;99.90;;;;;;5064034;28;20116;-86
2022/08/28 00:13:57;;;;;;;14.98;7.85;;;18.00;99.90;;;;;;5069654;28;20103;-85
2022/08/28 00:16:23;;;;;;;12.18;7.25;;;18.00;99.90;;;;;;5075614;28;20682;-86
2022/08/28 00:18:50;;;;;;;13.55;7.10;;;18.10;99.90;;;;;;5080263;22;20075;-83
2022/08/28 00:21:16;;;;;;;13.95;7.72;;;18.00;99.90;;;;;;5055940;28;20021;-83
2022/08/28 00:23:42;;;;;;;12.68;6.68;;;18.00;99.90;;;;;;5056985;28;20017;-85
2022/08/28 00:26:08;;;;;;;15.07;7.65;;;18.00;99.90;;;;;;5055965;28;20021;-85
2022/08/28 00:28:33;;;;;;;12.48;6.80;;;18.00;99.90;;;;;;5059451;28;20107;-84
2022/08/28 00:30:59;;;;;;;16.05;8.52;;;18.00;99.90;;;;;;5059769;28;20025;-84
2022/08/28 00:33:31;;;;;;;14.38;6.60;;;18.10;99.90;;;;;;5061726;28;20021;-82
2022/08/28 00:35:59;;;;;;;14.52;6.72;;;18.10;99.90;;;;;;5080383;22;20041;-83
2022/08/28 00:38:26;;;;;;;11.23;7.63;;;18.10;99.90;;;;;;5045243;28;20475;-83
2022/08/28 00:40:56;;;;;;;16.13;8.18;;;18.10;99.90;;;;;;5050110;28;20023;-83
2022/08/28 00:43:32;;;;;;;14.63;8.02;;;18.10;99.90;;;;;;5065159;28;20092;-83
2022/08/28 00:45:59;;;;;;;13.05;7.82;;;18.10;99.90;;;;;;5049786;28;20017;-83
2022/08/28 00:48:25;;;;;;;14.27;7.72;;;18.10;99.90;;;;;;5048809;28;20024;-83
2022/08/28 00:53:34;;;;;;;15.25;7.95;;;18.20;99.90;;;;;;5046195;28;20511;-82
2022/08/28 00:56:03;;;;;;;12.27;7.63;;;18.10;99.90;;;;;;5047265;28;20481;-83
2022/08/28 00:58:29;;;;;;;17.50;7.72;;;18.10;99.90;;;;;;5048712;28;20032;-83
2022/08/28 01:00:55;;;;;;;15.40;7.72;;;18.20;99.90;;;;;;5050268;28;20013;-83
2022/08/28 01:03:21;;;;;;;14.55;8.00;;;18.20;99.90;;;;;;5048310;28;20035;-83
2022/08/28 01:05:48;;;;;;;14.15;8.15;;;18.20;99.90;;;;;;5049583;28;20096;-83
2022/08/28 01:08:14;;;;;;;15.50;8.18;;;18.10;99.90;;;;;;5050215;28;20086;-83
2022/08/28 01:10:43;;;;;;;14.85;8.52;;;18.10;99.90;;;;;;5050543;28;20451;-83
2022/08/28 01:13:10;;;;;;;14.18;7.88;;;18.10;99.90;;;;;;5052829;28;20059;-83
2022/08/28 01:15:38;;;;;;;13.63;7.60;;;18.10;99.90;;;;;;5053492;28;20025;-83
2022/08/28 01:18:07;;;;;;;16.08;8.57;;;18.10;99.90;;;;;;5052869;28;20113;-83
2022/08/28 01:20:36;;;;;;;15.07;7.97;;;18.10;99.90;;;;;;5051867;28;20025;-83
2022/08/28 01:23:04;;;;;;;14.30;8.35;;;18.10;99.90;;;;;;5052631;28;20021;-83
2022/08/28 01:25:33;;;;;;;16.35;8.27;;;18.10;99.90;;;;;;5051949;28;20025;-83
2022/08/28 01:28:00;;;;;;;16.58;8.90;;;18.10;99.90;;;;;;5052315;28;20025;-83
2022/08/28 01:30:27;;;;;;;15.68;9.18;;;18.10;99.90;;;;;;5053679;28;20021;-83
2022/08/28 01:32:55;;;;;;;16.40;8.70;;;18.10;99.90;;;;;;5053877;28;20029;-83
2022/08/28 01:35:26;;;;;;;11.02;6.75;;;18.10;99.90;;;;;;5053146;28;20036;-83
2022/08/28 01:37:54;;;;;;;15.88;8.15;;;18.10;99.90;;;;;;5053144;28;20021;-83
2022/08/28 01:40:26;;;;;;;15.38;7.50;;;18.10;99.90;;;;;;5052239;28;20033;-83
2022/08/28 01:42:53;;;;;;;14.13;8.10;;;18.10;99.90;;;;;;5047320;28;20021;-83
2022/08/28 01:45:21;;;;;;;15.75;8.68;;;18.10;99.90;;;;;;5049392;28;20374;-83
2022/08/28 01:47:47;;;;;;;13.35;7.78;;;18.10;99.90;;;;;;5052396;28;20021;-85
2022/08/28 01:50:15;;;;;;;14.80;8.10;;;18.10;99.90;;;;;;5052402;28;20103;-85
2022/08/28 01:52:41;;;;;;;13.85;7.80;;;18.10;99.90;;;;;;5052025;28;20025;-85
2022/08/28 01:55:09;;;;;;;15.07;7.97;;;18.00;99.90;;;;;;5052571;28;20029;-85
2022/08/28 01:57:42;;;;;;;16.98;9.02;;;18.00;99.90;;;;;;5051405;28;20033;-85
2022/08/28 02:00:09;;;;;;;15.25;7.93;;;17.90;99.90;;;;;;5051819;28;20401;-86
2022/08/28 02:02:35;;;;;;;16.98;8.48;;;17.90;99.90;;;;;;5052708;28;20029;-85
2022/08/28 02:05:01;;;;;;;15.27;8.48;;;17.80;99.90;;;;;;5052652;28;20374;-85
2022/08/28 02:07:26;;;;;;;15.30;8.38;;;17.90;99.90;;;;;;5051980;28;20398;-84
2022/08/28 02:09:52;;;;;;;13.05;7.85;;;17.90;99.90;;;;;;5052770;28;20029;-85
2022/08/28 02:12:19;;;;;;;16.85;8.85;;;17.90;99.90;;;;;;5051631;28;20025;-85
2022/08/28 02:14:45;;;;;;;19.00;8.88;;;17.90;99.90;;;;;;5052716;28;20115;-87
2022/08/28 02:17:10;;;;;;;15.48;8.98;;;17.90;99.90;;;;;;5051769;28;20583;-85
2022/08/28 02:19:36;;;;;;;13.02;8.00;;;17.80;99.90;;;;;;5052487;28;20029;-85
2022/08/28 02:22:06;;;;;;;14.85;8.05;;;17.80;99.90;;;;;;5051807;28;20024;-85
2022/08/28 02:24:33;;;;;;;17.05;8.30;;;17.80;99.90;;;;;;5052854;28;20023;-85
2022/08/28 02:27:00;;;;;;;17.85;8.27;;;17.80;99.90;;;;;;5051786;28;20520;-85
2022/08/28 02:29:26;;;;;;;19.25;8.88;;;17.80;99.90;;;;;;5052746;28;20096;-85
2022/08/28 02:31:51;;;;;;;14.20;7.75;;;17.70;99.90;;;;;;5052851;28;20104;-85
2022/08/28 02:34:17;;;;;;;17.40;9.43;;;17.70;99.90;;;;;;5051042;28;20077;-85
2022/08/28 02:36:43;;;;;;;16.98;8.27;;;17.80;99.90;;;;;;5051836;28;20300;-85
2022/08/28 02:39:09;;;;;;;16.20;7.88;;;17.70;99.90;;;;;;5052594;28;20088;-85
2022/08/28 02:41:34;;;;;;;18.90;8.43;;;17.70;99.90;;;;;;5051120;28;20028;-85
2022/08/28 02:44:00;;;;;;;16.85;7.95;;;17.70;99.90;;;;;;5052665;28;20013;-85
2022/08/28 02:46:26;;;;;;;17.17;8.80;;;17.70;99.90;;;;;;5051356;28;20036;-85
2022/08/28 02:48:51;;;;;;;15.80;8.68;;;17.70;99.90;;;;;;5051583;28;20496;-85
2022/08/28 02:51:18;;;;;;;15.15;8.40;;;17.70;99.90;;;;;;5052029;28;20025;-85
2022/08/28 02:53:45;;;;;;;17.88;9.48;;;17.80;99.90;;;;;;5051185;28;20036;-85
2022/08/28 02:56:11;;;;;;;16.23;8.25;;;17.80;99.90;;;;;;5052045;28;20017;-85
2022/08/28 02:58:38;;;;;;;18.20;8.93;;;17.80;99.90;;;;;;5051363;28;20480;-85
2022/08/28 03:01:06;;;;;;;16.50;8.85;;;17.80;99.90;;;;;;5050125;28;20036;-85
2022/08/28 03:03:32;;;;;;;15.73;8.98;;;17.80;99.90;;;;;;5050822;28;20029;-84
2022/08/28 03:05:59;;;;;;;16.52;8.75;;;17.80;99.90;;;;;;5050127;28;20021;-84
2022/08/28 03:08:25;;;;;;;17.45;8.25;;;17.80;99.90;;;;;;5052116;28;20021;-85
2022/08/28 03:10:51;;;;;;;15.57;8.15;;;17.80;99.90;;;;;;5051491;28;20028;-84
2022/08/28 03:13:17;;;;;;;17.00;8.50;;;17.80;99.90;;;;;;5052013;28;20503;-85
2022/08/28 03:15:44;;;;;;;15.00;8.68;;;17.80;99.90;;;;;;5049842;28;20033;-84
2022/08/28 03:18:12;;;;;;;15.73;8.13;;;17.90;99.90;;;;;;5051411;28;20511;-85
2022/08/28 03:20:38;;;;;;;17.08;8.93;;;17.80;99.90;;;;;;5050350;28;20025;-85
2022/08/28 03:25:49;;;;;;;16.88;8.27;;;17.80;99.90;;;;;;5050821;28;20111;-85
2022/08/28 03:28:15;;;;;;;15.35;8.45;;;17.80;99.90;;;;;;5050138;28;20031;-86
2022/08/28 03:30:40;;;;;;;12.88;7.40;;;17.90;99.90;;;;;;5050199;28;20025;-85
2022/08/28 03:33:06;;;;;;;17.00;8.13;;;17.90;99.90;;;;;;5050072;28;20043;-85
2022/08/28 03:35:31;;;;;;;17.25;7.95;;;17.90;99.90;;;;;;5048984;28;20040;-85
2022/08/28 03:37:57;;;;;;;16.27;8.00;;;17.90;99.90;;;;;;5051308;28;20020;-85
2022/08/28 03:40:23;;;;;;;14.00;8.00;;;17.90;99.90;;;;;;5051332;28;20065;-85
2022/08/28 03:42:49;;;;;;;15.60;8.23;;;17.90;99.90;;;;;;5051218;28;20025;-85
2022/08/28 03:45:14;;;;;;;15.45;7.60;;;17.90;99.90;;;;;;5050579;28;20025;-84
2022/08/28 03:47:41;;;;;;;15.38;8.43;;;17.90;99.90;;;;;;5050097;28;20017;-85
2022/08/28 03:50:10;;;;;;;16.77;8.98;;;17.90;99.90;;;;;;5051346;28;20025;-85
2022/08/28 03:52:36;;;;;;;15.90;8.48;;;17.90;99.90;;;;;;5047064;28;20029;-85
2022/08/28 03:55:03;;;;;;;16.27;8.30;;;17.90;99.90;;;;;;5049129;28;20028;-85
2022/08/28 03:57:29;;;;;;;14.80;8.60;;;17.90;99.90;;;;;;5049650;28;20739;-85
2022/08/28 03:59:55;;;;;;;16.33;7.85;;;17.90;99.90;;;;;;5050750;28;20072;-85
2022/08/28 04:02:21;;;;;;;14.32;7.88;;;17.90;99.90;;;;;;5046019;28;20389;-85
2022/08/28 04:04:50;;;;;;;13.20;7.57;;;17.80;99.90;;;;;;5044507;28;20032;-84
2022/08/28 04:07:16;;;;;;;15.30;7.93;;;17.80;99.90;;;;;;5050298;28;20685;-85
2022/08/28 04:09:42;;;;;;;15.05;7.50;;;17.90;99.90;;;;;;5049828;28;20031;-85
2022/08/28 04:12:08;;;;;;;18.60;7.13;;;17.90;99.90;;;;;;5050599;28;20025;-85
2022/08/28 04:14:34;;;;;;;15.05;7.60;;;17.80;99.90;;;;;;5050543;28;20500;-85
2022/08/28 04:17:00;;;;;;;14.02;7.40;;;17.80;99.90;;;;;;5049010;28;20112;-85
2022/08/28 04:19:26;;;;;;;14.38;7.30;;;17.90;99.90;;;;;;5049502;28;20132;-85
2022/08/28 04:21:52;;;;;;;14.48;8.10;;;17.90;99.90;;;;;;5049155;28;20517;-85
2022/08/28 04:24:17;;;;;;;15.02;7.60;;;17.90;99.90;;;;;;5050610;28;20013;-85
2022/08/28 04:26:43;;;;;;;13.95;8.02;;;17.90;99.90;;;;;;5048775;28;20040;-85
2022/08/28 04:29:08;;;;;;;14.38;8.07;;;17.90;99.90;;;;;;5050346;28;20128;-85
2022/08/28 04:31:34;;;;;;;15.10;8.10;;;17.90;99.90;;;;;;5050598;28;20033;-85
2022/08/28 04:34:01;;;;;;;14.77;8.05;;;17.90;99.90;;;;;;5050883;28;20062;-85
2022/08/28 04:36:27;;;;;;;14.82;7.75;;;17.80;99.90;;;;;;5049665;28;20061;-85
2022/08/28 04:38:53;;;;;;;14.98;7.68;;;17.80;99.90;;;;;;5050294;28;20033;-85
2022/08/28 04:41:19;;;;;;;13.85;7.47;;;17.80;99.90;;;;;;5050499;28;20067;-85
2022/08/28 04:43:45;;;;;;;13.63;7.88;;;17.80;99.90;;;;;;5049263;28;20025;-85
2022/08/28 04:46:13;;;;;;;13.65;6.78;;;17.90;99.90;;;;;;5047953;28;20021;-85
2022/08/28 04:48:40;;;;;;;13.10;7.03;;;17.90;99.90;;;;;;5050312;28;20513;-85
2022/08/28 04:51:08;;;;;;;13.02;7.25;;;17.90;99.90;;;;;;5050604;28;20099;-85
2022/08/28 04:53:35;;;;;;;13.63;7.35;;;17.90;99.90;;;;;;5046111;28;20074;-85
2022/08/28 04:56:06;;;;;;;12.68;7.40;;;17.90;99.90;;;;;;5046052;28;20025;-85
2022/08/28 04:58:33;;;;;;;13.57;7.43;;;17.80;99.90;;;;;;5049331;28;20032;-86
2022/08/28 05:01:04;;;;;;;13.32;7.03;;;17.80;99.90;;;;;;5050051;28;20112;-84
2022/08/28 05:03:29;;;;;;;14.10;7.70;;;17.90;99.90;;;;;;5049923;28;20058;-84
2022/08/28 05:05:55;;;;;;;13.80;7.80;;;17.90;99.90;;;;;;5048593;28;20033;-84
2022/08/28 05:08:25;;;;;;;12.98;7.25;;;17.80;99.90;;;;;;5049073;28;20470;-84
2022/08/28 05:10:51;;;;;;;12.68;7.53;;;17.80;99.90;;;;;;5043068;28;20031;-85
2022/08/28 05:13:18;;;;;;;14.15;7.95;;;17.90;99.90;;;;;;5050063;28;20477;-84
2022/08/28 05:15:46;;;;;;;13.45;7.88;;;17.80;99.90;;;;;;5043986;28;20044;-84
2022/08/28 05:18:13;;;;;;;14.80;7.30;;;17.90;99.90;;;;;;5055620;28;20125;-85
2022/08/28 05:20:40;;;;;;;13.40;7.00;;;17.90;99.90;;;;;;5049884;28;20682;-85
2022/08/28 05:23:08;;;;;;;14.18;7.00;;;17.90;99.90;;;;;;5050079;28;20022;-85
2022/08/28 05:25:42;;;;;;;13.60;7.63;;;18.00;99.90;;;;;;5047640;28;20024;-84
2022/08/28 05:28:09;;;;;;;15.68;7.45;;;17.90;99.90;;;;;;5050450;28;20109;-85
2022/08/28 05:30:36;;;;;;;14.43;7.45;;;17.90;99.90;;;;;;5050184;28;20143;-84
2022/08/28 05:33:03;;;;;;;14.02;7.30;;;17.90;99.90;;;;;;5050216;28;20035;-84
2022/08/28 05:35:32;;;;;;;13.70;7.20;;;17.90;99.90;;;;;;5048080;28;20091;-84
2022/08/28 05:37:57;;;;;;;13.77;7.03;;;18.00;99.90;;;;;;5048986;28;20017;-84
2022/08/28 05:40:23;;;;;;;13.82;7.05;;;17.90;99.90;;;;;;5048571;28;20075;-85
2022/08/28 05:42:49;;;;;;;15.32;7.78;;;17.90;99.90;;;;;;5048487;28;20124;-84
2022/08/28 05:45:15;;;;;;;10.95;6.18;;;18.00;99.90;;;;;;5048476;28;20028;-84
2022/08/28 05:47:42;;;;;;;13.15;7.30;;;18.00;99.90;;;;;;5050019;28;20018;-85
2022/08/28 05:50:09;;;;;;;13.57;6.85;;;18.00;99.90;;;;;;5048743;28;20019;-85
2022/08/28 05:52:34;;;;;;;13.00;6.13;;;18.00;99.90;;;;;;5049753;28;20033;-85
2022/08/28 05:55:00;;;;;;;13.82;7.22;;;18.10;99.90;;;;;;5042430;28;20547;-85
2022/08/28 05:57:26;;;;;;;14.40;6.65;;;18.00;99.90;;;;;;5049016;28;20021;-84
2022/08/28 05:59:52;;;;;;;13.52;6.82;;;18.10;99.90;;;;;;5052067;28;20048;-84
2022/08/28 06:02:18;;;;;;;12.38;7.07;;;18.10;99.90;;;;;;5053478;28;20060;-84
2022/08/28 06:04:45;;;;;;;14.75;7.65;;;18.10;99.90;;;;;;5052200;28;20043;-87
2022/08/28 06:07:12;;;;;;;13.77;7.25;;;18.10;99.90;;;;;;5053596;28;20025;-85
2022/08/28 06:09:38;;;;;;;14.07;7.07;;;18.10;99.90;;;;;;5051665;28;20036;-85
2022/08/28 06:12:04;;;;;;;13.18;6.88;;;18.20;99.90;;;;;;5051717;28;20033;-85
2022/08/28 06:14:30;;;;;;;15.02;7.20;;;18.30;99.90;;;;;;5053142;28;20032;-84
2022/08/28 06:16:57;;;;;;;13.57;6.53;;;18.30;99.90;;;;;;5051435;28;20051;-84
2022/08/28 06:19:24;;;;;;;13.70;7.18;;;18.30;99.90;;;;;;5051130;28;20029;-84
2022/08/28 06:21:53;;;;;;;15.10;7.50;;;18.30;99.90;;;;;;5047015;28;20055;-84
2022/08/28 06:24:19;;;;;;;15.13;7.18;;;18.30;99.90;;;;;;5049377;28;20064;-84
2022/08/28 06:26:45;;;;;;;13.07;6.93;;;18.40;99.90;;;;;;5051270;28;20056;-84
2022/08/28 06:29:16;;;;;;;13.30;6.88;;;18.40;99.90;;;;;;5051528;28;20102;-84
2022/08/28 06:31:42;;;;;;;13.68;7.00;;;18.40;99.90;;;;;;5051518;28;20029;-84
2022/08/28 06:34:08;;;;;;;12.00;6.18;;;18.50;99.90;;;;;;5052938;28;20035;-84
2022/08/28 06:36:36;;;;;;;11.45;6.55;;;18.50;99.90;;;;;;5075372;22;20039;-80
2022/08/28 06:39:04;;;;;;;12.68;6.68;;;18.50;99.90;;;;;;5067831;28;20385;-80
2022/08/28 06:41:31;;;;;;;13.75;7.10;;;18.60;99.90;;;;;;5068695;28;20108;-80
2022/08/28 06:43:57;;;;;;;13.30;7.22;;;18.60;99.90;;;;;;5066219;28;20032;-80
2022/08/28 06:46:24;;;;;;;11.77;6.95;;;18.70;99.90;;;;;;5066518;28;20107;-80
2022/08/28 06:48:50;;;;;;;9.52;5.57;;;18.80;99.90;;;;;;5052271;28;20533;-80
2022/08/28 06:51:16;;;;;;;12.00;6.30;;;18.90;99.90;;;;;;5053767;28;20031;-80
2022/08/28 06:53:44;;;;;;;9.55;5.78;;;18.90;99.90;;;;;;5050704;28;20033;-80
2022/08/28 06:56:13;;;;;;;13.98;6.25;;;19.00;99.90;;;;;;5048768;28;20029;-80
2022/08/28 06:58:42;;;;;;;11.02;6.32;;;19.00;99.90;;;;;;5051353;28;20029;-81
2022/08/28 07:01:24;;;;;;;10.82;6.10;;;19.00;99.90;;;;;;5047193;28;20021;-80
2022/08/28 07:03:52;;;;;;;13.20;5.70;;;19.00;99.90;;;;;;5053215;28;20027;-81
2022/08/28 07:06:19;;;;;;;11.18;6.10;;;19.00;99.90;;;;;;5050901;28;20120;-80
2022/08/28 07:08:45;;;;;;;11.73;6.10;;;19.00;99.90;;;;;;5054998;28;20504;-80
2022/08/28 07:11:18;;;;;;;11.57;5.55;;;19.00;99.90;;;;;;5047373;28;20021;-80
2022/08/28 07:13:44;;;;;;;12.60;5.90;;;19.00;99.90;;;;;;5052420;28;20393;-80
2022/08/28 07:16:11;;;;;;;13.50;6.03;;;19.00;99.90;;;;;;5051036;28;20524;-80
2022/08/28 07:18:38;;;;;;;10.02;6.05;;;19.10;99.90;;;;;;5067194;28;20122;-81
2022/08/28 07:21:04;;;;;;;14.98;6.25;;;19.20;99.90;;;;;;5050440;28;20028;-80
2022/08/28 07:23:31;;;;;;;12.68;6.43;;;19.20;99.90;;;;;;5048677;28;20029;-80
2022/08/28 07:25:57;;;;;;;9.38;5.05;;;19.20;99.90;;;;;;5047317;28;20020;-81
2022/08/28 07:28:23;;;;;;;10.15;5.70;;;19.30;99.90;;;;;;5051173;28;20523;-81
2022/08/28 07:31:00;;;;;;;10.70;5.97;;;19.30;99.90;;;;;;5048044;28;20021;-80
2022/08/28 07:33:27;;;;;;;10.90;5.60;;;19.40;99.90;;;;;;5048697;28;20033;-81
2022/08/28 07:35:54;;;;;;;11.25;5.80;;;19.40;99.90;;;;;;5050639;28;20025;-81
2022/08/28 07:38:20;;;;;;;8.77;5.25;;;19.50;99.90;;;;;;5063727;28;20025;-81
2022/08/28 07:40:46;;;;;;;8.90;5.00;;;19.50;99.90;;;;;;5051383;28;20074;-81
2022/08/28 07:45:59;;;;;;;10.20;6.15;;;19.70;99.90;;;;;;5049178;28;20083;-81
2022/08/28 07:48:25;;;;;;;12.85;6.43;;;19.80;99.90;;;;;;5066501;28;20044;-80
2022/08/28 07:50:51;;;;;;;12.25;5.97;;;19.70;99.90;;;;;;5051437;28;20461;-81
2022/08/28 07:53:17;;;;;;;12.32;5.82;;;19.80;99.90;;;;;;5050777;28;20036;-80
2022/08/28 07:55:43;;;;;;;12.80;6.15;;;19.80;99.90;;;;;;5048281;28;20072;-80
2022/08/28 07:58:08;;;;;;;9.30;5.82;;;19.90;99.90;;;;;;5045532;28;20428;-80
2022/08/28 08:00:34;;;;;;;10.70;6.03;;;19.90;99.90;;;;;;5065125;28;20082;-81
2022/08/28 08:03:00;;;;;;;9.05;5.32;;;20.00;99.90;;;;;;5049158;28;20029;-81
2022/08/28 08:05:25;;;;;;;11.63;5.70;;;20.10;99.90;;;;;;5046164;28;20025;-80
2022/08/28 08:07:51;;;;;;;8.40;5.40;;;20.00;99.90;;;;;;5050836;28;20466;-81
2022/08/28 08:10:17;;;;;;;9.35;4.88;;;20.10;99.90;;;;;;5047072;28;20108;-80
2022/08/28 08:12:43;;;;;;;10.48;5.57;;;20.20;99.90;;;;;;5049395;28;20025;-81
2022/08/28 08:15:10;;;;;;;8.30;4.93;;;20.20;99.90;;;;;;5050745;28;20392;-81
2022/08/28 08:17:36;;;;;;;9.13;5.40;;;20.20;99.90;;;;;;5050511;28;20064;-81
2022/08/28 08:20:02;;;;;;;9.38;5.28;;;20.30;99.90;;;;;;5064611;28;20067;-80
2022/08/28 08:22:28;;;;;;;10.20;5.18;;;20.30;99.90;;;;;;5049139;28;20435;-80
2022/08/28 08:24:54;;;;;;;8.52;4.82;;;20.40;99.90;;;;;;5046569;28;20026;-81
2022/08/28 08:27:20;;;;;;;8.98;5.05;;;20.50;99.90;;;;;;5048134;28;20025;-81
2022/08/28 08:29:45;;;;;;;10.93;5.65;;;20.60;99.90;;;;;;5063322;28;20018;-81
2022/08/28 08:32:11;;;;;;;7.80;4.78;;;20.70;99.90;;;;;;5049220;28;20100;-81
2022/08/28 08:34:41;;;;;;;9.57;5.63;;;20.80;99.90;;;;;;5049751;28;20044;-80
2022/08/28 08:37:07;;;;;;;9.05;5.50;;;20.90;99.90;;;;;;5064753;28;20056;-81
2022/08/28 08:39:34;;;;;;;11.45;5.40;;;21.00;99.90;;;;;;5050514;28;20025;-81
2022/08/28 08:42:02;;;;;;;8.25;5.05;;;21.00;99.90;;;;;;5049175;28;20059;-81
2022/08/28 08:44:39;;;;;;;8.75;4.85;;;21.20;99.90;;;;;;5050492;28;20028;-80
2022/08/28 08:47:35;;;;;;;7.25;4.55;;;21.40;99.90;;;;;;5065394;28;20035;-81
2022/08/28 08:50:22;;;;;;;9.52;4.95;;;21.60;99.90;;;;;;5063757;28;20025;-80
2022/08/28 08:52:57;;;;;;;9.60;4.68;;;21.70;99.90;;;;;;5050333;28;20568;-80
2022/08/28 08:55:33;;;;;;;8.55;4.50;;;21.70;99.90;;;;;;5042622;28;20039;-81
2022/08/28 08:58:01;;;;;;;7.32;4.15;;;21.80;99.90;;;;;;5048085;28;20026;-80
2022/08/28 09:00:30;;;;;;;9.88;4.85;;;22.10;99.90;;;;;;5050213;28;20025;-80
2022/08/28 09:03:13;;;;;;;8.82;4.15;;;22.30;99.90;;;;;;5048972;28;20029;-80
2022/08/28 09:05:56;;;;;;;6.43;3.60;;;22.70;99.90;;;;;;5048603;28;20047;-81
2022/08/28 09:08:46;;;;;;;6.60;4.22;;;22.80;99.90;;;;;;5050213;28;20123;-80
2022/08/28 09:11:37;;;;;;;6.10;3.50;;;22.60;99.90;;;;;;5042534;28;20032;-81
2022/08/28 09:14:09;;;;;;;7.78;3.83;;;22.60;99.90;;;;;;5044697;28;20018;-80
2022/08/28 09:16:39;;;;;;;6.40;3.58;;;22.50;99.90;;;;;;5052674;28;20086;-80
2022/08/28 09:19:08;;;;;;;6.78;4.35;;;22.40;99.90;;;;;;5058089;28;20039;-81
2022/08/28 09:21:39;;;;;;;8.10;4.40;;;22.30;99.90;;;;;;5060497;28;20035;-81
2022/08/28 09:24:10;;;;;;;9.93;4.47;;;22.20;99.90;;;;;;5051871;28;20100;-80
2022/08/28 09:26:36;;;;;;;7.65;3.67;;;22.20;99.90;;;;;;5061958;28;20045;-80
2022/08/28 09:29:31;;;;;;;7.25;3.42;;;22.20;99.90;;;;;;5056731;28;20098;-81
2022/08/28 09:31:57;;;;;;;6.32;3.55;;;22.30;99.90;;;;;;5047367;28;20466;-81
2022/08/28 09:34:27;;;;;;;8.43;4.32;;;22.40;99.90;;;;;;5054803;28;20082;-81
2022/08/28 09:36:54;;;;;;;8.15;4.13;;;22.60;99.90;;;;;;5067922;28;20025;-80
2022/08/28 09:39:36;;;;;;;9.48;3.80;;;22.90;99.90;;;;;;5054417;28;20029;-80
2022/08/28 09:45:20;;;;;;;5.90;3.40;;;23.20;99.90;;;;;;5052259;28;20036;-81
2022/08/28 09:47:54;;;;;;;5.65;3.28;;;23.40;99.90;;;;;;5053918;28;20020;-81
2022/08/28 09:50:20;;;;;;;7.45;3.30;;;23.80;99.90;;;;;;5054960;28;20025;-81
2022/08/28 09:52:46;;;;;;;6.10;3.38;;;23.80;99.90;;;;;;5053609;28;20036;-81
2022/08/28 09:55:34;;;;;;;6.95;3.25;;;23.80;99.90;;;;;;5062544;28;20029;-81
2022/08/28 09:58:00;;;;;;;5.55;2.92;;;23.70;99.90;;;;;;5051822;28;20027;-81
2022/08/28 10:00:33;;;;;;;5.63;3.45;;;23.50;99.90;;;;;;5052817;28;20025;-81
2022/08/28 10:03:13;;;;;;;5.72;3.40;;;23.30;99.90;;;;;;5052455;28;20047;-81
2022/08/28 10:06:07;;;;;;;7.15;3.13;;;23.20;99.90;;;;;;5047122;28;20028;-81
2022/08/28 10:08:41;;;;;;;5.55;2.85;;;23.30;99.90;;;;;;5040986;28;20042;-81
2022/08/28 10:11:34;;;;;;;5.10;2.60;;;23.70;99.90;;;;;;5052003;28;20442;-81
2022/08/28 10:14:37;;;;;;;6.25;2.80;;;23.90;99.90;;;;;;5000122;28;20033;-81
2022/08/28 10:17:28;;;;;;;5.53;2.70;;;24.10;99.90;;;;;;5045459;28;20037;-82
2022/08/28 10:20:16;;;;;;;4.97;2.58;;;24.10;99.90;;;;;;5045845;28;20017;-81
2022/08/28 10:22:49;;;;;;;4.85;2.80;;;24.30;99.90;;;;;;5064900;28;20036;-81
2022/08/28 10:25:22;;;;;;;5.50;2.58;;;24.60;99.90;;;;;;5064779;28;20017;-81
2022/08/28 10:28:00;;;;;;;5.35;2.63;;;24.90;99.90;;;;;;5051023;28;20017;-81
2022/08/28 10:30:30;;;;;;;5.00;2.25;;;24.70;99.90;;;;;;5050984;28;20123;-82
2022/08/28 10:33:31;;;;;;;5.78;3.35;;;24.50;99.90;;;;;;5042952;28;20429;-82
2022/08/28 10:36:12;;;;;;;4.82;2.70;;;24.10;99.90;;;;;;5060345;28;20094;-81
2022/08/28 10:38:44;;;;;;;5.30;2.63;;;23.80;99.90;;;;;;5052296;28;20768;-82
2022/08/28 10:41:24;;;;;;;5.57;2.75;;;23.90;99.90;;;;;;5063295;28;21007;-81
2022/08/28 10:43:56;;;;;;;5.55;2.60;;;24.20;99.90;;;;;;5047120;28;20045;-82
2022/08/28 10:46:23;;;;;;;;;;;24.50;99.90;;;;;;5048533;28;20025;-82
2022/08/28 10:49:13;;;;;;;6.40;2.90;;;24.50;99.90;;;;;;5048631;28;20308;-82
2022/08/28 10:51:44;;;;;;;5.00;2.58;;;24.90;99.90;;;;;;5046762;28;20037;-82
2022/08/28 10:54:21;;;;;;;6.32;2.85;;;24.70;99.90;;;;;;5044430;28;20025;-81
2022/08/28 10:56:59;;;;;;;5.00;2.42;;;24.90;99.90;;;;;;5064107;28;20013;-81
2022/08/28 10:59:29;;;;;;;8.35;2.85;;;25.20;99.90;;;;;;5052123;28;20017;-81
2022/08/28 11:01:55;;;;;;;5.72;2.53;;;25.30;99.90;;;;;;5048749;28;20099;-82
2022/08/28 11:04:22;;;;;;;3.88;2.22;;;25.20;99.90;;;;;;5063984;28;20060;-82
2022/08/28 11:07:11;;;;;;;4.75;2.80;;;25.30;99.90;;;;;;5044935;28;20067;-82
2022/08/28 11:09:46;;;;;;;5.80;2.78;;;25.30;99.90;;;;;;5047441;28;20026;-82
2022/08/28 11:12:15;;;;;;;4.88;2.35;;;25.30;99.90;;;;;;5051661;28;20025;-82
2022/08/28 11:14:43;;;;;;;5.35;2.45;;;25.30;99.90;;;;;;5067606;28;20033;-82
2022/08/28 11:17:21;;;;;;;6.53;2.30;;;25.10;99.90;;;;;;5051945;28;20017;-82
2022/08/28 11:20:08;;;;;;;4.57;2.50;;;25.20;99.90;;;;;;5061037;28;20025;-82
2022/08/28 11:22:37;;;;;;;4.70;2.05;;;24.90;99.90;;;;;;5045318;28;20029;-82
2022/08/28 11:25:14;;;;;;;6.30;2.50;;;25.00;99.90;;;;;;5056504;28;20044;-82
2022/08/28 11:28:16;;;;;;;5.40;2.60;;;25.00;99.90;;;;;;5055886;28;20146;-81
2022/08/28 11:30:44;;;;;;;;;;;24.60;99.90;;;;;;5051759;28;20025;-82
2022/08/28 11:33:48;;;;;;;4.72;2.67;;;24.50;99.90;;;;;;5052282;28;19951;-82
2022/08/28 11:36:17;;;;;;;6.30;2.17;;;24.40;99.90;;;;;;5048178;28;20025;-81
2022/08/28 11:38:43;;;;;;;4.60;2.60;;;24.20;99.90;;;;;;5042212;28;20048;-82
2022/08/28 11:41:16;;;;;;;4.72;2.15;;;24.20;99.90;;;;;;5051946;28;20025;-82
2022/08/28 11:43:44;;;;;;;5.00;2.35;;;24.50;99.90;;;;;;5051411;28;20024;-81
2022/08/28 11:46:15;;;;;;;3.22;1.80;;;24.90;99.90;;;;;;5047669;28;20100;-82
2022/08/28 11:48:52;;;;;;;4.72;2.17;;;25.00;99.90;;;;;;5060198;28;20120;-82
2022/08/28 11:51:21;;;;;;;4.68;2.20;;;25.10;99.90;;;;;;5050418;28;20033;-82
2022/08/28 11:53:59;;;;;;;4.55;2.08;;;24.90;99.90;;;;;;5063294;28;20055;-81
2022/08/28 11:56:33;;;;;;;4.35;2.15;;;24.70;99.90;;;;;;5043908;28;20120;-82
2022/08/28 11:59:04;;;;;;;5.03;2.25;;;24.90;99.90;;;;;;5050314;28;20024;-82
2022/08/28 12:01:31;;;;;;;;;;;25.40;99.90;;;;;;5052001;28;20100;-82
2022/08/28 12:04:00;;;;;;;3.60;1.90;;;25.90;99.90;;;;;;5047603;28;19913;-82
2022/08/28 12:06:50;;;;;;;3.92;2.25;;;26.20;99.90;;;;;;5044941;28;20049;-82
2022/08/28 12:09:25;;;;;;;3.90;1.95;;;25.90;99.90;;;;;;5053411;28;20378;-82
2022/08/28 12:12:09;;;;;;;3.40;2.05;;;26.10;99.90;;;;;;5066230;28;20025;-82
2022/08/28 12:14:35;;;;;;;4.10;1.60;;;26.50;99.90;;;;;;5048538;28;20108;-82
2022/08/28 12:17:04;;;;;;;4.38;1.90;;;26.50;99.90;;;;;;5066396;28;20048;-82
2022/08/28 12:19:35;;;;;;;4.93;1.90;;;26.70;99.90;;;;;;5050251;28;20371;-82
2022/08/28 12:22:08;;;;;;;4.35;2.42;;;26.40;99.90;;;;;;5041183;28;20106;-82
2022/08/28 12:24:35;;;;;;;3.92;2.03;;;26.00;99.90;;;;;;5051551;28;20071;-82
2022/08/28 12:27:02;;;;;;;5.45;2.17;;;26.00;99.90;;;;;;5049442;28;20017;-82
2022/08/28 12:29:37;;;;;;;4.65;2.13;;;26.40;99.90;;;;;;5044526;28;20485;-82
2022/08/28 12:32:45;;;;;;;5.00;2.00;;;26.60;99.90;;;;;;5065471;28;20500;-82
2022/08/28 12:35:16;;;;;;;3.47;1.83;;;26.80;99.90;;;;;;5039655;28;20029;-82
2022/08/28 12:37:59;;;;;;;4.60;2.40;;;26.80;99.90;;;;;;5086583;22;20034;-85
2022/08/28 12:40:26;;;;;;;4.70;2.30;;;27.30;99.90;;;;;;5063407;28;20147;-85
2022/08/28 12:42:57;;;;;;;4.90;2.05;;;27.50;99.90;;;;;;5068160;28;20389;-85
2022/08/28 12:45:33;;;;;;;4.38;2.65;;;27.80;99.90;;;;;;5070312;28;20013;-83
2022/08/28 12:48:01;;;;;;;4.38;1.92;;;27.60;99.90;;;;;;5063496;28;20032;-84
2022/08/28 12:50:35;;;;;;;3.70;1.85;;;27.30;99.90;;;;;;5048812;28;20664;-84
2022/08/28 12:53:04;;;;;;;4.45;2.17;;;27.30;99.90;;;;;;5047385;28;20544;-84
2022/08/28 12:55:31;;;;;;;5.65;2.00;;;27.10;99.90;;;;;;5050440;28;20111;-84
2022/08/28 12:57:57;;;;;;;4.38;2.35;;;27.10;99.90;;;;;;5046543;28;20103;-84
2022/08/28 13:00:28;;;;;;;4.82;2.22;;;27.10;99.70;;;;;;5045723;28;20537;-84
2022/08/28 13:02:55;;;;;;;3.55;1.90;;;27.30;99.60;;;;;;5066057;28;20056;-84
2022/08/28 13:05:38;;;;;;;3.53;2.00;;;27.30;99.40;;;;;;5048902;28;20040;-85